Ricardo Soares

Recruteur en chef - Feirense
4 Juin 2028
Dimanche
Processus

Personnalité

Adaptabilité (12) Ambition (6) Controverse (15) Loyauté (19) Pression (19) Professionnalisme (16) Sportivité (14) Tempérament (1)

Profil

Style d'entraînement Démocratique
Diplôme Continental Pro
Détermination 7
Gestion des joueurs 5
Motivation 5
Discipline 10
Satisfaction professionnelle
91%
Fatigue
0%
Rôle Recruteur en chef
Salaire 45.1K p/s
Contrat 14.03.2029

Performance

Comportement Bon
Efficacité de l'entraînement
41%
Développement des joueurs
20%
Prévention des blessures
50%
Mise en place tactique
45%

Suivi en cours

100
Joueur Club Statut Capacité Confiance Observé Dernière observation Dernier vote
Rodrigo Dias Sporting CP Actif 106 / 100 65% 1 24.01.2028 -
Sabino Sport Recife Actif 124 / 122 40% 1 06.01.2028 -
Franco Malagueño Colegiales Actif 114 / 109 40% 1 06.01.2028 -
Damián Bobadilla Sport Recife Actif 138 / 127 40% 1 06.01.2028 -
Kaio Mendes Rio Ave Actif 113 / 103 62% 1 09.08.2027 Approuver
Tomás Ahumada Audax Italiano Actif 120 / 120 40% 1 07.08.2027 -
Tommaso Cucchietti Potenza Actif 107 / 95 40% 1 07.08.2027 -
Santiago Silva Boston River Actif 130 / 131 40% 1 06.08.2027 -
Renzo Bacchia Racing Actif 116 / 123 40% 1 06.08.2027 -
Rafael Sánchez Aragua Actif 95 / 90 40% 4 05.08.2027 -
Ifeanyi Emmanuel Niger Tornadoes Actif 97 / 115 40% 2 01.08.2027 -
Nahuel Yzaurralde Quilmes Actif 95 / 97 40% 2 01.08.2027 -
Michael Atata Ikorodu City Actif 82 / 111 40% 3 31.07.2027 -
Felix Kyei Medeama Actif 93 / 90 40% 2 31.07.2027 -
Luca Gemello Perugia Actif 118 / 121 40% 3 29.07.2027 -
Ikenna Benjamin Bayelsa United Actif 97 / 97 40% 4 29.07.2027 -
Sheikh Sibi Virtus Verona Actif 96 / 104 40% 3 26.07.2027 -
Body Samir ENPPI Actif 117 / 112 40% 2 25.07.2027 -
Erick Mothiba Black Aces Actif 110 / 98 40% 5 24.07.2027 -
Emiliano González BATE Actif 115 / 124 40% 1 23.07.2027 -
Matteo Rizzo Campobasso Actif 118 / 119 40% 2 22.07.2027 -
Alberto Zecchin Dolomiti Bellunesi Actif 93 / 99 40% 2 18.07.2027 -
Dmytro Matsapura Metalurh Zaporizhzhia Actif 103 / 101 40% 1 18.07.2027 -
Juan Moreno Cerro Largo Actif 118 / 119 40% 2 16.07.2027 -
José Miers 12 de Octubre Actif 110 / 96 40% 1 16.07.2027 -
Vitor Hugo Lusitânia Lourosa Actif 109 / 117 40% 4 13.07.2027 -
Mustapha Lawal Shooting Stars Actif 105 / 90 40% 1 13.07.2027 -
Heorhii Yermakov Metalist Actif 127 / 108 40% 3 12.07.2027 -
Zacarías López Iquique Actif 107 / 100 40% 1 07.07.2027 -
Matouš Trmal Teplice Actif 126 / 115 40% 1 06.07.2027 -
Timur Kraikov Sokol Actif 85 / 89 40% 1 02.07.2027 -
Mauro Silveira Junior Actif 129 / 116 40% 2 01.07.2027 -
Evgeny Staver Rubin Actif 116 / 107 40% 3 01.07.2027 -
Mikhail Gaidash Spartak Kostroma Actif 91 / 108 40% 1 30.06.2027 -
Rui Costa Port Vale Actif 118 / 109 40% 2 29.06.2027 -
Bryan Róchez Chaves Actif 117 / 109 40% 1 29.06.2027 -
Ani Ozoemena Rivers United Actif 108 / 102 40% 1 29.06.2027 -
Shamal George Walsall Actif 118 / 102 40% 1 28.06.2027 -
Daniele Sommariva Arzignano Actif 109 / 109 40% 4 26.06.2027 -
Szymon Weirauch Lechia Actif 127 / 102 40% 2 25.06.2027 -
Fabrizio Alastra Altamura Actif 105 / 101 40% 2 23.06.2027 -
Víctor Cabezas Union Magdalena Actif 124 / 115 40% 1 23.06.2027 -
Alfie Whiteman Barrow AFC Actif 115 / 115 40% 2 22.06.2027 -
Maksym Kovaliov Spartak 1918 Actif 105 / 102 40% 1 21.06.2027 -
Tom Eaves Northampton Town Actif 95 / 100 40% 1 18.06.2027 -
Joe Ironside Tranmere Rovers Actif 94 / 88 40% 1 15.06.2027 -
Cal Jennings ASO Chlef Actif 112 / 90 40% 1 15.06.2027 -
Niccolò Chiorra Casarano Actif 98 / 102 40% 1 14.06.2027 -
Thulani Erasmus Ajax Cape Town Actif 126 / 123 40% 3 13.06.2027 -
Strahinja Manojlović Radnicki Nis Actif 108 / 122 40% 1 13.06.2027 -
Islam Imamov SKA Khabarovsk Actif 104 / 94 40% 1 11.06.2027 -
Tomáš Frühwald Bohemians 1905 Actif 118 / 123 40% 1 10.06.2027 -
Oleksandr Saputin Zorya Actif 108 / 123 40% 2 08.06.2027 -
Felipe Scheibig Hatayspor Actif 114 / 127 40% 3 06.06.2027 -
Jacopo Sassi Sambenedettese Actif 104 / 100 40% 1 05.06.2027 -
James Rodríguez Slavia Prague Actif 148 / 148 40% 3 31.01.2027 -
José Álvarez Arsenal Tula Actif 123 / 108 40% 1 31.01.2027 -
Mauro Casoli Giugliano Actif 114 / 101 40% 2 30.01.2027 -
Sławomir Abramowicz Jagiellonia Actif 117 / 135 40% 1 30.01.2027 -
Zizo Al Ahly Actif 146 / 148 40% 1 28.01.2027 -
Matheus Lemos ASO Chlef Actif 89 / 95 40% 2 27.01.2027 -
Lorenzo Insigne Sampdoria Actif 126 / 121 40% 1 27.01.2027 -
Christian Joel Sánchez Leiria Actif 120 / 107 40% 1 24.01.2027 -
Alfie May Huddersfield Town Actif 116 / 104 40% 1 21.01.2027 -
Agustín Allione Crewe Alexandra Actif 98 / 115 40% 2 18.01.2027 -
Bogdan Ovsyannikov Orenburg Actif 121 / 118 40% 1 18.01.2027 -
William Carvalho Pachuca Actif 131 / 149 40% 1 18.01.2027 -
Daniil Frolkin Fakel Actif 104 / 107 40% 1 16.01.2027 -
Anton Zhylkin Karpaty Actif 100 / 110 40% 1 15.01.2027 -
Costinha Torreense Actif 120 / 110 40% 1 14.01.2027 -
Alfonso Pastor Maritimo Actif 98 / 119 40% 1 13.01.2027 -
Peter Shalulile Mamelodi Sundowns Actif 122 / 135 40% 2 12.01.2027 -
Sam Morsy Blackburn Rovers Actif 131 / 122 40% 1 12.01.2027 -
Lucas Braga Viborg Actif 104 / 125 40% 2 08.01.2027 -
Fabijan Buntić Farense Actif 121 / 100 40% 1 06.01.2027 -
Jewison Bennette LNZ Actif 114 / 100 40% 1 06.01.2027 -
Jan Koutný Sigma Olomouc Actif 117 / 118 40% 1 01.01.2027 -
Robin Lod Chicago Fire Actif 139 / 140 40% 1 30.08.2026 -
Rogelio Funes Mori Universidad de Concepcion Actif 110 / 123 40% 1 30.08.2026 -
Antoine Griezmann Orlando City Actif 168 / 158 40% 2 29.08.2026 -
Federico Martínez Liverpool Montevideo Actif 121 / 119 40% 1 29.08.2026 -
Álex Arce Independiente Rivadavia Actif 132 / 128 40% 1 28.08.2026 -
Facundo Suárez Instituto Actif 118 / 116 40% 1 27.08.2026 -
Juan Dinenno Pumas UNAM Actif 137 / 133 40% 1 26.08.2026 -
Haris Tabaković Red Bull Salzburg Actif 147 / 128 40% 1 21.08.2026 -
Welinton Júnior Adana Demirspor Actif 102 / 106 40% 1 18.08.2026 -
Augusto Lotti Albirex Niigata Actif 109 / 112 40% 1 17.08.2026 -
Marco Pérez Actif 115 / 109 40% 1 17.08.2026 -
Guillermo Paiva Junior Actif 119 / 115 40% 1 16.08.2026 -
Juan Camilo Mosquera Atletico Bucaramanga Actif 115 / 114 40% 1 09.08.2026 -
Jorge Sánchez Atlas Actif 137 / 128 40% 1 08.08.2026 -
Manuel Capasso Atlas Actif 124 / 111 40% 1 08.08.2026 -
José Alberti Wanderers Actif 117 / 115 40% 1 07.08.2026 -
Claudio Núñez Cienciano Actif 123 / 120 40% 1 06.08.2026 -
Cristian Trujillo Deportes Tolima Actif 121 / 107 40% 1 06.08.2026 -
Cristian Arrieta Deportes Tolima Actif 112 / 116 40% 1 04.08.2026 -
Aldair Zárate Atletico Bucaramanga Actif 107 / 118 40% 1 04.08.2026 -
Ayrton Cougo Progreso Actif 107 / 100 40% 1 03.08.2026 -
Emiliano Sosa Cerro Actif 100 / 111 40% 1 01.08.2026 -
Luis Rojas Universidad de Concepcion Actif 92 / 96 40% 1 01.08.2026 -